Time;durP1;ratioP1;P1;durP2;ratioP2;P2;SDS_P1;SDS_P2;PMS_P1;PMS_P2;Temp;Humidity;BMP_temperature;BMP_pressure;BME280_temperature;BME280_humidity;BME280_pressure;Samples;Min_cycle;Max_cycle;Signal;HPM_P1;HPM_P2
2021/11/18 00:00:33;;;;;;;0.47;0.40;;;18.80;99.90;;;;;;5054391;28;20052;-87
2021/11/18 00:02:59;;;;;;;1.23;0.70;;;18.80;99.90;;;;;;5079935;28;20126;-83
2021/11/18 00:05:26;;;;;;;1.27;0.70;;;18.80;99.90;;;;;;5072884;28;20140;-86
2021/11/18 00:07:54;;;;;;;2.08;0.80;;;18.80;99.90;;;;;;5070924;28;20166;-85
2021/11/18 00:10:25;;;;;;;1.52;0.88;;;18.80;99.90;;;;;;5054778;28;20392;-86
2021/11/18 00:12:52;;;;;;;1.00;0.50;;;18.80;99.90;;;;;;5091810;28;20475;-86
2021/11/18 00:15:19;;;;;;;0.65;0.57;;;18.80;99.90;;;;;;5074337;28;20152;-85
2021/11/18 00:17:45;;;;;;;2.13;0.77;;;18.80;99.90;;;;;;5066303;28;20553;-84
2021/11/18 00:20:14;;;;;;;1.02;0.40;;;18.80;99.90;;;;;;5062737;28;20048;-85
2021/11/18 00:22:44;;;;;;;0.60;0.50;;;18.70;99.90;;;;;;5073121;28;20048;-86
2021/11/18 00:25:14;;;;;;;0.68;0.68;;;18.80;99.90;;;;;;5074245;28;20052;-84
2021/11/18 00:27:40;;;;;;;2.03;0.65;;;18.80;99.90;;;;;;5092653;28;20119;-88
2021/11/18 00:30:08;;;;;;;0.63;0.60;;;18.80;99.90;;;;;;5074374;28;20123;-86
2021/11/18 00:32:35;;;;;;;0.77;0.63;;;18.80;99.90;;;;;;5074027;28;20051;-86
2021/11/18 00:35:03;;;;;;;0.60;0.60;;;18.80;99.90;;;;;;5059313;28;20044;-84
2021/11/18 00:37:28;;;;;;;0.50;0.50;;;18.70;99.90;;;;;;5091927;28;20043;-86
2021/11/18 00:39:54;;;;;;;0.90;0.80;;;18.70;99.90;;;;;;5099120;28;20044;-85
2021/11/18 00:42:20;;;;;;;0.55;0.45;;;18.70;99.90;;;;;;5054352;28;20056;-86
2021/11/18 00:44:45;;;;;;;0.55;0.50;;;18.70;99.90;;;;;;5066858;28;20044;-88
2021/11/18 00:47:11;;;;;;;1.13;0.40;;;18.70;99.90;;;;;;5053696;28;20048;-86
2021/11/18 00:49:37;;;;;;;0.65;0.50;;;18.70;99.90;;;;;;5079560;28;20093;-86
2021/11/18 00:52:03;;;;;;;0.95;0.47;;;18.70;99.90;;;;;;5052723;28;20044;-84
2021/11/18 00:54:29;;;;;;;1.02;0.40;;;18.70;99.90;;;;;;5031309;28;20051;-85
2021/11/18 00:56:58;;;;;;;0.82;0.57;;;18.70;99.90;;;;;;5076546;28;20048;-85
2021/11/18 00:59:24;;;;;;;0.50;0.50;;;18.70;99.90;;;;;;5056323;28;20048;-86
2021/11/18 01:01:51;;;;;;;1.17;0.77;;;18.70;99.90;;;;;;5067780;28;20052;-85
2021/11/18 01:04:19;;;;;;;0.95;0.52;;;18.70;99.90;;;;;;5040736;28;20071;-86
2021/11/18 01:06:47;;;;;;;0.60;0.60;;;18.70;99.90;;;;;;5055911;28;20059;-86
2021/11/18 01:09:13;;;;;;;1.77;0.90;;;18.70;99.90;;;;;;5061190;28;20407;-84
2021/11/18 01:11:39;;;;;;;0.52;0.52;;;18.70;99.90;;;;;;5079978;28;20103;-83
2021/11/18 01:14:08;;;;;;;2.05;0.50;;;18.70;99.90;;;;;;5075400;28;20044;-84
2021/11/18 01:16:36;;;;;;;0.65;0.50;;;18.70;99.90;;;;;;5072801;28;20494;-85
2021/11/18 01:19:04;;;;;;;0.60;0.60;;;18.70;99.90;;;;;;5074413;28;20250;-85
2021/11/18 01:21:30;;;;;;;0.60;0.50;;;18.70;99.90;;;;;;5070947;28;20041;-84
2021/11/18 01:23:56;;;;;;;1.40;0.50;;;18.70;99.90;;;;;;5062706;28;20040;-83
2021/11/18 01:26:22;;;;;;;0.60;0.60;;;18.70;99.90;;;;;;5072643;28;20074;-84
2021/11/18 01:28:48;;;;;;;1.48;0.73;;;18.60;99.90;;;;;;5073589;28;20074;-84
2021/11/18 01:31:16;;;;;;;0.38;0.38;;;18.60;99.90;;;;;;5090979;28;20376;-87
2021/11/18 01:33:42;;;;;;;0.73;0.70;;;18.60;99.90;;;;;;5083863;28;20051;-86
2021/11/18 01:36:09;;;;;;;0.82;0.70;;;18.60;99.90;;;;;;5064573;28;20617;-86
2021/11/18 01:38:35;;;;;;;0.73;0.52;;;18.60;99.90;;;;;;5055296;28;20480;-85
2021/11/18 01:41:09;;;;;;;0.93;0.47;;;18.60;99.90;;;;;;5072527;28;20040;-85
2021/11/18 01:43:42;;;;;;;0.68;0.55;;;18.60;99.90;;;;;;5089582;28;20119;-85
2021/11/18 01:46:13;;;;;;;1.38;0.80;;;18.60;99.90;;;;;;5089278;28;20116;-84
2021/11/18 01:48:39;;;;;;;0.50;0.47;;;18.60;99.90;;;;;;5097181;28;20040;-86
2021/11/18 01:51:05;;;;;;;0.38;0.38;;;18.60;99.90;;;;;;5089668;28;20382;-85
2021/11/18 01:53:37;;;;;;;0.60;0.60;;;18.60;99.90;;;;;;5055556;28;20043;-84
2021/11/18 01:56:10;;;;;;;0.60;0.60;;;18.60;99.90;;;;;;5088227;28;20055;-85
2021/11/18 01:58:37;;;;;;;1.40;0.68;;;18.60;99.90;;;;;;5072849;28;20051;-83
2021/11/18 02:01:06;;;;;;;1.00;0.63;;;18.60;99.90;;;;;;5072034;28;20085;-84
2021/11/18 02:03:32;;;;;;;1.02;0.75;;;18.60;99.90;;;;;;5091839;28;20416;-85
2021/11/18 02:06:04;;;;;;;1.20;0.43;;;18.60;99.90;;;;;;5086492;28;20076;-85
2021/11/18 02:08:30;;;;;;;0.38;0.35;;;18.60;99.90;;;;;;5083137;28;20377;-84
2021/11/18 02:11:02;;;;;;;0.50;0.50;;;18.60;99.90;;;;;;5066882;28;20052;-85
2021/11/18 02:13:29;;;;;;;0.60;0.60;;;18.60;99.90;;;;;;5047443;28;20048;-85
2021/11/18 02:15:57;;;;;;;1.67;0.77;;;18.60;99.90;;;;;;5089621;28;20047;-86
2021/11/18 02:18:29;;;;;;;0.82;0.50;;;18.60;99.90;;;;;;5077820;28;20048;-85
2021/11/18 02:20:59;;;;;;;1.00;0.52;;;18.60;99.90;;;;;;5051221;28;20158;-86
2021/11/18 02:23:29;;;;;;;1.17;0.60;;;18.60;99.90;;;;;;5090710;28;20036;-85
2021/11/18 02:25:55;;;;;;;1.60;0.60;;;18.50;99.90;;;;;;5056499;28;20051;-86
2021/11/18 02:28:24;;;;;;;1.33;0.50;;;18.60;99.90;;;;;;5057258;28;20047;-85
2021/11/18 02:30:52;;;;;;;1.38;0.75;;;18.60;99.90;;;;;;5078423;28;20089;-91
2021/11/18 02:33:19;;;;;;;0.82;0.70;;;18.50;99.90;;;;;;5056625;28;20384;-86
2021/11/18 02:35:47;;;;;;;1.17;0.80;;;18.50;99.90;;;;;;5073135;28;20040;-85
2021/11/18 02:38:14;;;;;;;1.13;1.00;;;18.50;99.90;;;;;;5093399;28;20513;-85
2021/11/18 02:40:42;;;;;;;0.82;0.70;;;18.50;99.90;;;;;;5054873;28;20185;-85
2021/11/18 02:43:14;;;;;;;1.88;0.80;;;18.50;99.90;;;;;;5089492;28;20059;-85
2021/11/18 02:45:41;;;;;;;0.77;0.75;;;18.50;99.90;;;;;;5057320;28;20484;-85
2021/11/18 02:48:06;;;;;;;1.08;0.60;;;18.50;99.90;;;;;;5090508;28;20558;-86
2021/11/18 02:50:35;;;;;;;1.60;0.85;;;18.50;99.90;;;;;;5077261;28;20044;-84
2021/11/18 02:53:03;;;;;;;1.33;0.60;;;18.50;99.90;;;;;;5076409;28;20471;-86
2021/11/18 02:55:33;;;;;;;0.68;0.60;;;18.50;99.90;;;;;;5076372;28;20048;-85
2021/11/18 02:57:59;;;;;;;;;;;18.50;99.90;;;;;;5076887;28;20048;-86
2021/11/18 03:00:32;;;;;;;1.25;0.60;;;18.50;99.90;;;;;;5060206;28;20002;-85
2021/11/18 03:02:57;;;;;;;0.85;0.77;;;18.50;99.90;;;;;;5092945;28;20067;-85
2021/11/18 03:05:24;;;;;;;0.98;0.68;;;18.40;99.90;;;;;;5060086;28;20492;-85
2021/11/18 03:07:51;;;;;;;1.17;0.65;;;18.50;99.90;;;;;;5076302;28;20052;-86
2021/11/18 03:10:21;;;;;;;0.90;0.80;;;18.50;99.90;;;;;;5080901;28;20078;-87
2021/11/18 03:12:47;;;;;;;2.17;0.95;;;18.50;99.90;;;;;;5077118;28;20047;-86
2021/11/18 03:15:14;;;;;;;0.60;0.60;;;18.50;99.90;;;;;;5047713;28;20049;-86
2021/11/18 03:17:42;;;;;;;0.65;0.60;;;18.50;99.90;;;;;;5056125;28;20131;-86
2021/11/18 03:20:12;;;;;;;0.65;0.65;;;18.40;99.90;;;;;;5092491;28;20048;-86
2021/11/18 03:22:38;;;;;;;1.40;0.95;;;18.40;99.90;;;;;;5093829;28;20519;-86
2021/11/18 03:25:06;;;;;;;0.73;0.50;;;18.40;99.90;;;;;;5060310;28;20055;-85
2021/11/18 03:27:32;;;;;;;0.90;0.70;;;18.40;99.90;;;;;;5093476;28;20048;-85
2021/11/18 03:29:57;;;;;;;1.23;0.75;;;18.40;99.90;;;;;;5075363;28;20488;-85
2021/11/18 03:32:23;;;;;;;1.08;0.70;;;18.40;99.90;;;;;;5075573;28;20048;-86
2021/11/18 03:34:49;;;;;;;1.15;0.77;;;18.40;99.90;;;;;;5092953;28;20044;-85
2021/11/18 03:37:15;;;;;;;0.95;0.60;;;18.40;99.90;;;;;;5098842;28;20072;-86
2021/11/18 03:39:41;;;;;;;0.95;0.80;;;18.40;99.90;;;;;;5079063;28;20047;-85
2021/11/18 03:42:09;;;;;;;0.52;0.50;;;18.40;99.90;;;;;;5092962;28;20075;-85
2021/11/18 03:44:36;;;;;;;0.77;0.65;;;18.40;99.90;;;;;;5092259;28;20052;-86
2021/11/18 03:47:07;;;;;;;0.82;0.60;;;18.40;99.90;;;;;;5092601;28;20036;-85
2021/11/18 03:49:34;;;;;;;0.43;0.40;;;18.40;99.90;;;;;;5075355;28;20036;-85
2021/11/18 03:52:01;;;;;;;1.50;0.88;;;18.40;99.90;;;;;;5054581;28;20057;-85
2021/11/18 03:54:30;;;;;;;1.42;0.70;;;18.40;99.90;;;;;;5065767;28;20103;-86
2021/11/18 03:56:55;;;;;;;0.70;0.70;;;18.40;99.90;;;;;;5093037;28;20118;-85
2021/11/18 03:59:28;;;;;;;0.57;0.50;;;18.40;99.90;;;;;;5025375;28;20487;-86
2021/11/18 04:01:55;;;;;;;2.08;0.80;;;18.40;99.90;;;;;;5069001;28;20089;-86
2021/11/18 04:04:26;;;;;;;1.23;0.88;;;18.40;99.90;;;;;;5071676;28;20503;-86
2021/11/18 04:06:52;;;;;;;0.70;0.70;;;18.30;99.90;;;;;;5071613;28;20044;-85
2021/11/18 04:09:18;;;;;;;0.82;0.80;;;18.40;99.90;;;;;;5075015;28;20055;-84
2021/11/18 04:11:47;;;;;;;1.35;0.60;;;18.40;99.90;;;;;;5058880;28;20487;-83
2021/11/18 04:14:14;;;;;;;2.58;1.10;;;18.30;99.90;;;;;;5076111;28;20403;-84
2021/11/18 04:16:40;;;;;;;1.40;0.70;;;18.40;99.90;;;;;;5104302;28;20048;-85
2021/11/18 04:19:06;;;;;;;0.52;0.52;;;18.30;99.90;;;;;;5092040;28;20047;-85
2021/11/18 04:21:33;;;;;;;1.52;0.80;;;18.30;99.90;;;;;;5074841;28;20055;-85
2021/11/18 04:24:05;;;;;;;0.70;0.70;;;18.30;99.90;;;;;;5092401;28;20123;-88
2021/11/18 04:26:31;;;;;;;1.33;0.73;;;18.30;99.90;;;;;;5070797;28;20048;-85
2021/11/18 04:28:58;;;;;;;1.60;0.98;;;18.30;99.90;;;;;;5080154;28;20546;-85
2021/11/18 04:31:25;;;;;;;1.33;0.95;;;18.30;99.90;;;;;;5057666;28;20040;-85
2021/11/18 04:33:52;;;;;;;1.40;0.80;;;18.30;99.90;;;;;;5092629;28;20542;-85
2021/11/18 04:36:21;;;;;;;1.00;0.70;;;18.30;99.90;;;;;;5091998;28;20055;-85
2021/11/18 04:38:51;;;;;;;0.97;0.70;;;18.30;99.90;;;;;;5092708;28;20058;-86
2021/11/18 04:41:16;;;;;;;1.75;0.68;;;18.30;99.90;;;;;;5060026;28;20119;-84
2021/11/18 04:43:43;;;;;;;1.35;0.90;;;18.30;99.90;;;;;;5074876;28;20151;-88
2021/11/18 04:46:10;;;;;;;0.70;0.70;;;18.30;99.90;;;;;;5074307;28;20101;-85
2021/11/18 04:48:37;;;;;;;1.10;0.77;;;18.30;99.90;;;;;;5058150;28;20396;-85
2021/11/18 04:51:05;;;;;;;0.82;0.77;;;18.30;99.90;;;;;;5074185;28;20055;-87
2021/11/18 04:53:31;;;;;;;1.00;0.70;;;18.30;99.90;;;;;;5101121;28;20550;-85
2021/11/18 04:55:58;;;;;;;1.10;1.00;;;18.30;99.90;;;;;;5076726;28;20056;-85
2021/11/18 04:58:23;;;;;;;1.77;0.70;;;18.30;99.90;;;;;;5094416;28;20096;-85
2021/11/18 05:00:53;;;;;;;0.80;0.70;;;18.30;99.90;;;;;;5057767;28;20531;-84
2021/11/18 05:03:20;;;;;;;;;;;18.20;99.90;;;;;;5092960;28;20035;-86
2021/11/18 05:05:50;;;;;;;1.77;1.13;;;18.30;99.90;;;;;;5054804;28;19927;-85
2021/11/18 05:08:16;;;;;;;;;;;18.30;99.90;;;;;;5051745;28;20052;-84
2021/11/18 05:10:45;;;;;;;2.10;0.80;;;18.30;99.90;;;;;;5108448;28;19927;-84
2021/11/18 05:13:11;;;;;;;1.70;0.75;;;18.30;99.90;;;;;;5092180;28;20051;-85
2021/11/18 05:15:40;;;;;;;2.10;0.98;;;18.30;99.90;;;;;;5091676;28;20044;-85
2021/11/18 05:18:07;;;;;;;2.70;1.10;;;18.20;99.90;;;;;;5089592;28;20052;-86
2021/11/18 05:20:33;;;;;;;1.25;0.90;;;18.20;99.90;;;;;;5056728;28;20044;-84
2021/11/18 05:23:00;;;;;;;1.95;1.00;;;18.20;99.90;;;;;;5091139;28;20040;-85
2021/11/18 05:25:28;;;;;;;0.65;0.63;;;18.20;99.90;;;;;;5078573;28;20117;-84
2021/11/18 05:27:55;;;;;;;0.95;0.80;;;18.20;99.90;;;;;;5090526;28;20447;-88
2021/11/18 05:30:26;;;;;;;1.38;0.93;;;18.20;99.90;;;;;;5072999;28;20036;-85
2021/11/18 05:32:52;;;;;;;1.63;1.00;;;18.20;99.90;;;;;;5073456;28;20054;-85
2021/11/18 05:35:21;;;;;;;1.10;0.88;;;18.20;99.90;;;;;;5074392;28;20047;-86
2021/11/18 05:37:47;;;;;;;1.60;1.00;;;18.20;99.90;;;;;;5073272;28;20451;-86
2021/11/18 05:40:13;;;;;;;1.10;0.77;;;18.20;99.90;;;;;;5053698;28;20042;-85
2021/11/18 05:42:39;;;;;;;2.53;1.13;;;18.20;99.90;;;;;;5066667;28;20110;-86
2021/11/18 05:45:08;;;;;;;1.58;0.85;;;18.20;99.90;;;;;;5040379;28;20083;-85
2021/11/18 05:47:34;;;;;;;0.93;0.80;;;18.20;99.90;;;;;;5091679;28;20130;-85
2021/11/18 05:50:00;;;;;;;0.80;0.80;;;18.20;99.90;;;;;;5024083;28;20127;-86
2021/11/18 05:52:27;;;;;;;1.35;0.70;;;18.10;99.90;;;;;;5072921;28;20036;-83
2021/11/18 05:54:54;;;;;;;2.97;1.15;;;18.20;99.90;;;;;;5089846;28;20052;-84
2021/11/18 05:57:20;;;;;;;1.88;1.08;;;18.20;99.90;;;;;;5072858;28;20079;-84
2021/11/18 05:59:45;;;;;;;1.33;0.77;;;18.10;99.90;;;;;;5063411;28;20069;-84
2021/11/18 06:02:11;;;;;;;1.05;0.85;;;18.20;99.90;;;;;;5072077;28;20488;-83
2021/11/18 06:04:37;;;;;;;1.35;0.77;;;18.20;99.90;;;;;;5072653;28;20039;-84
2021/11/18 06:07:04;;;;;;;1.05;0.75;;;18.20;99.90;;;;;;5091402;28;20037;-85
2021/11/18 06:09:29;;;;;;;1.83;0.90;;;18.20;99.90;;;;;;5061039;28;20195;-85
2021/11/18 06:11:56;;;;;;;1.80;0.80;;;18.20;99.90;;;;;;5073040;28;20515;-84
2021/11/18 06:14:22;;;;;;;1.25;0.68;;;18.20;99.90;;;;;;5072105;28;20048;-85
2021/11/18 06:16:48;;;;;;;1.10;0.95;;;18.20;99.90;;;;;;5091092;28;20159;-85
2021/11/18 06:19:14;;;;;;;1.58;0.70;;;18.10;99.90;;;;;;5089607;28;20506;-84
2021/11/18 06:21:43;;;;;;;0.77;0.70;;;18.10;99.90;;;;;;5055974;28;20064;-85
2021/11/18 06:24:10;;;;;;;1.73;0.90;;;18.20;99.90;;;;;;5055740;28;20044;-89
2021/11/18 06:26:36;;;;;;;0.68;0.65;;;18.10;99.90;;;;;;5090803;28;20424;-85
2021/11/18 06:29:02;;;;;;;1.20;0.80;;;18.10;99.90;;;;;;5089434;28;20047;-86
2021/11/18 06:31:28;;;;;;;2.53;0.98;;;18.10;99.90;;;;;;5083228;28;20123;-85
2021/11/18 06:33:54;;;;;;;0.98;0.60;;;18.10;99.90;;;;;;5072321;28;20155;-85
2021/11/18 06:36:20;;;;;;;2.92;0.95;;;18.10;99.90;;;;;;5054384;28;20063;-87
2021/11/18 06:38:49;;;;;;;1.52;0.82;;;18.10;99.90;;;;;;5098917;28;20060;-86
2021/11/18 06:41:16;;;;;;;2.58;0.90;;;18.10;99.90;;;;;;5088896;28;20052;-85
2021/11/18 06:43:42;;;;;;;1.63;0.70;;;18.10;99.90;;;;;;5072931;28;20040;-83
2021/11/18 06:46:08;;;;;;;2.88;0.80;;;18.10;99.90;;;;;;5090509;28;20253;-83
2021/11/18 06:48:34;;;;;;;1.38;0.90;;;18.10;99.90;;;;;;5089466;28;20055;-83
2021/11/18 06:51:16;;;;;;;1.17;0.80;;;18.10;99.90;;;;;;5061010;28;20040;-86
2021/11/18 06:53:43;;;;;;;1.73;0.93;;;18.20;99.90;;;;;;5072279;28;20143;-85
2021/11/18 06:56:11;;;;;;;1.05;0.73;;;18.20;99.90;;;;;;5060074;28;20063;-86
2021/11/18 06:58:36;;;;;;;1.50;0.70;;;18.20;99.90;;;;;;5056437;28;20201;-85
2021/11/18 07:01:03;;;;;;;2.35;0.80;;;18.20;99.90;;;;;;5072229;28;20143;-85
2021/11/18 07:03:29;;;;;;;0.77;0.75;;;18.20;99.90;;;;;;5089711;28;20059;-85
2021/11/18 07:05:55;;;;;;;1.35;0.95;;;18.20;99.90;;;;;;5067656;28;20048;-87
2021/11/18 07:08:21;;;;;;;1.05;0.95;;;18.20;99.90;;;;;;5072919;28;20051;-85
2021/11/18 07:10:47;;;;;;;1.40;1.00;;;18.30;99.90;;;;;;5072775;28;20043;-87
2021/11/18 07:13:19;;;;;;;0.93;0.80;;;18.30;99.90;;;;;;5089797;28;20042;-85
2021/11/18 07:15:46;;;;;;;1.10;0.70;;;18.30;99.90;;;;;;5089405;28;20040;-85
2021/11/18 07:18:13;;;;;;;0.95;0.70;;;18.30;99.90;;;;;;5075784;28;20047;-85
2021/11/18 07:20:39;;;;;;;1.40;0.93;;;18.30;99.90;;;;;;5078377;28;20133;-85
2021/11/18 07:23:05;;;;;;;0.73;0.63;;;18.40;99.90;;;;;;5072249;28;20125;-85
2021/11/18 07:25:31;;;;;;;1.73;0.70;;;18.40;99.90;;;;;;5072048;28;20527;-87
2021/11/18 07:27:59;;;;;;;1.08;0.73;;;18.40;99.90;;;;;;5072114;28;20430;-87
2021/11/18 07:30:25;;;;;;;0.70;0.63;;;18.50;99.90;;;;;;5073519;28;20063;-86
2021/11/18 07:32:52;;;;;;;1.00;0.70;;;18.50;99.90;;;;;;5058885;28;20078;-86
2021/11/18 07:35:18;;;;;;;0.85;0.70;;;18.50;99.90;;;;;;5058545;28;20487;-90
2021/11/18 07:37:43;;;;;;;0.40;0.40;;;18.50;99.90;;;;;;5053760;28;20044;-86
2021/11/18 07:40:13;;;;;;;1.10;0.60;;;18.60;99.90;;;;;;5070949;28;20122;-86
2021/11/18 07:42:39;;;;;;;1.38;0.60;;;18.60;99.90;;;;;;5075913;28;20057;-88
2021/11/18 07:45:08;;;;;;;0.68;0.68;;;18.60;99.90;;;;;;5055781;28;20127;-85
2021/11/18 07:47:34;;;;;;;0.70;0.70;;;18.60;99.90;;;;;;5055010;28;20481;-85
2021/11/18 07:50:00;;;;;;;0.65;0.60;;;18.60;99.90;;;;;;5044550;28;20092;-87
2021/11/18 07:52:26;;;;;;;0.50;0.50;;;18.60;99.90;;;;;;5092474;28;20044;-90
2021/11/18 07:54:52;;;;;;;1.90;0.90;;;18.60;99.90;;;;;;5108602;28;20105;-85
2021/11/18 07:57:18;;;;;;;0.80;0.80;;;18.60;99.90;;;;;;5093241;28;20568;-89
2021/11/18 07:59:43;;;;;;;0.80;0.63;;;18.60;99.90;;;;;;5076053;28;20044;-85
2021/11/18 08:02:09;;;;;;;2.72;0.77;;;18.60;99.90;;;;;;5082447;28;20479;-85
2021/11/18 08:04:35;;;;;;;0.68;0.60;;;18.60;99.90;;;;;;5074367;28;20054;-85
2021/11/18 08:07:04;;;;;;;0.75;0.60;;;18.60;99.90;;;;;;5102241;28;20040;-85
2021/11/18 08:09:30;;;;;;;0.75;0.70;;;18.60;99.90;;;;;;5091591;28;20044;-85
2021/11/18 08:11:57;;;;;;;0.60;0.60;;;18.60;99.90;;;;;;5079193;28;20036;-86
2021/11/18 08:14:24;;;;;;;0.80;0.80;;;18.60;99.90;;;;;;5090457;28;20048;-82
2021/11/18 08:16:50;;;;;;;2.08;0.85;;;18.60;99.90;;;;;;5072930;28;20051;-86
2021/11/18 08:19:16;;;;;;;0.57;0.50;;;18.60;99.90;;;;;;5069501;28;20037;-83
2021/11/18 08:21:44;;;;;;;1.75;0.80;;;18.70;99.90;;;;;;5062915;28;20511;-85
2021/11/18 08:24:11;;;;;;;0.95;0.68;;;18.70;99.90;;;;;;5089276;28;20036;-85
2021/11/18 08:26:38;;;;;;;0.70;0.70;;;18.70;99.90;;;;;;5069011;28;20585;-86
2021/11/18 08:29:06;;;;;;;0.60;0.60;;;18.70;99.90;;;;;;5056483;28;20434;-87
2021/11/18 08:31:32;;;;;;;0.80;0.70;;;18.70;99.90;;;;;;5071229;28;20044;-87
2021/11/18 08:33:58;;;;;;;0.63;0.63;;;18.70;99.90;;;;;;5054326;28;20127;-86
2021/11/18 08:36:24;;;;;;;1.92;0.60;;;18.70;99.90;;;;;;5072944;28;20068;-88
2021/11/18 08:38:50;;;;;;;0.90;0.57;;;18.70;99.90;;;;;;5053637;28;20113;-85
2021/11/18 08:41:18;;;;;;;0.88;0.60;;;18.70;99.90;;;;;;5071997;28;20539;-84
2021/11/18 08:43:47;;;;;;;0.50;0.50;;;18.70;99.90;;;;;;5090192;28;20044;-84
2021/11/18 08:46:14;;;;;;;0.77;0.50;;;18.70;99.90;;;;;;5091244;28;20479;-86
2021/11/18 08:48:40;;;;;;;1.15;0.73;;;18.70;99.90;;;;;;5069680;28;20548;-87
2021/11/18 08:51:08;;;;;;;0.63;0.45;;;18.70;99.90;;;;;;5026747;28;20040;-86
2021/11/18 08:53:37;;;;;;;0.60;0.57;;;18.70;99.90;;;;;;5090463;28;20105;-86
2021/11/18 08:56:04;;;;;;;0.95;0.60;;;18.70;99.90;;;;;;5053861;28;20076;-87
2021/11/18 08:58:34;;;;;;;0.70;0.60;;;18.70;99.90;;;;;;5052630;28;20047;-85
2021/11/18 09:01:22;;;;;;;0.80;0.60;;;18.70;99.90;;;;;;5055007;28;20052;-85
2021/11/18 09:03:48;;;;;;;0.70;0.70;;;18.70;99.90;;;;;;5069039;28;20055;-85
2021/11/18 09:06:17;;;;;;;1.10;0.60;;;18.70;99.90;;;;;;5066692;28;20048;-85
2021/11/18 09:08:43;;;;;;;0.65;0.65;;;18.70;99.90;;;;;;5072416;28;20403;-87
2021/11/18 09:11:11;;;;;;;0.70;0.65;;;18.70;99.90;;;;;;5072584;28;20044;-87
2021/11/18 09:13:39;;;;;;;0.70;0.70;;;18.70;99.90;;;;;;5071620;28;20075;-88
2021/11/18 09:16:06;;;;;;;0.82;0.50;;;18.70;99.90;;;;;;5069655;28;20082;-87
2021/11/18 09:18:32;;;;;;;0.68;0.68;;;18.70;99.90;;;;;;5071271;28;20396;-86
2021/11/18 09:21:00;;;;;;;2.22;0.70;;;18.70;99.90;;;;;;5090060;28;20060;-86
2021/11/18 09:23:33;;;;;;;0.75;0.60;;;18.70;99.90;;;;;;5105507;28;20056;-88
2021/11/18 09:25:59;;;;;;;0.50;0.50;;;18.60;99.90;;;;;;5069584;28;20507;-87
2021/11/18 09:28:26;;;;;;;0.88;0.82;;;18.70;99.90;;;;;;5051656;28;20048;-86
2021/11/18 09:30:59;;;;;;;0.93;0.57;;;18.70;99.90;;;;;;5064882;28;20077;-86
2021/11/18 09:33:26;;;;;;;0.63;0.60;;;18.70;99.90;;;;;;5089096;28;20050;-86
2021/11/18 09:35:55;;;;;;;0.98;0.70;;;18.60;99.90;;;;;;5060534;28;20040;-87
2021/11/18 09:38:24;;;;;;;0.68;0.60;;;18.70;99.90;;;;;;5072099;28;20048;-86
2021/11/18 09:41:00;;;;;;;1.67;0.60;;;18.60;99.90;;;;;;5071346;28;20105;-87
2021/11/18 09:43:35;;;;;;;0.65;0.55;;;18.60;99.90;;;;;;5071186;28;20635;-87
2021/11/18 09:46:36;;;;;;;1.40;1.00;;;18.60;99.90;;;;;;5069815;28;20079;-86
2021/11/18 09:49:27;;;;;;;2.10;0.70;;;18.60;99.90;;;;;;5045454;28;20070;-87
2021/11/18 09:52:02;;;;;;;1.33;0.70;;;18.60;99.90;;;;;;5052580;28;20070;-86
2021/11/18 09:54:52;;;;;;;0.98;0.70;;;18.60;99.90;;;;;;5070119;28;20048;-86
2021/11/18 09:57:59;;;;;;;1.27;0.80;;;18.60;99.90;;;;;;5088311;28;20059;-86
2021/11/18 10:00:47;;;;;;;1.40;0.80;;;18.60;99.90;;;;;;5071135;28;20577;-87
2021/11/18 10:03:33;;;;;;;0.63;0.60;;;18.60;99.90;;;;;;5081810;28;20047;-88
2021/11/18 10:06:25;;;;;;;0.80;0.50;;;18.60;99.90;;;;;;5060598;28;20054;-87
2021/11/18 10:09:09;;;;;;;1.05;0.73;;;18.60;99.90;;;;;;5067998;28;20149;-86
2021/11/18 10:11:58;;;;;;;1.98;0.50;;;18.60;99.90;;;;;;5051238;28;20064;-86
2021/11/18 10:14:24;;;;;;;0.52;0.50;;;18.60;99.90;;;;;;5070102;28;20151;-86
2021/11/18 10:17:22;;;;;;;0.65;0.65;;;18.60;99.90;;;;;;5071426;28;20501;-86
2021/11/18 10:20:04;;;;;;;0.85;0.70;;;18.60;99.90;;;;;;5067309;28;20557;-86
2021/11/18 10:22:33;;;;;;;0.60;0.60;;;18.60;99.90;;;;;;5086770;28;20040;-85
2021/11/18 10:25:04;;;;;;;1.52;0.80;;;18.60;99.90;;;;;;5066053;28;20123;-85
2021/11/18 10:27:40;;;;;;;0.60;0.60;;;18.60;99.90;;;;;;5070455;28;20484;-85
2021/11/18 10:30:12;;;;;;;1.10;0.60;;;18.60;99.90;;;;;;5085738;28;20040;-85
2021/11/18 10:32:44;;;;;;;0.98;0.75;;;18.60;99.90;;;;;;5069853;28;20093;-84
2021/11/18 10:35:17;;;;;;;1.55;0.88;;;18.60;99.90;;;;;;5070976;28;20032;-83
2021/11/18 10:37:49;;;;;;;1.30;1.00;;;18.60;99.90;;;;;;5088204;28;20055;-85
2021/11/18 10:40:29;;;;;;;1.75;0.70;;;18.60;99.90;;;;;;5070731;28;20415;-86
2021/11/18 10:43:14;;;;;;;0.60;0.60;;;18.60;99.90;;;;;;5088192;28;20500;-86
2021/11/18 10:45:43;;;;;;;1.08;0.63;;;18.60;99.90;;;;;;5071995;28;20044;-87
2021/11/18 10:48:23;;;;;;;;;;;18.60;99.90;;;;;;5070428;28;20124;-86
2021/11/18 10:50:54;;;;;;;2.45;0.75;;;18.60;99.90;;;;;;5070378;28;19928;-87
2021/11/18 10:53:20;;;;;;;1.90;0.60;;;18.60;99.90;;;;;;5071099;28;20044;-86
2021/11/18 10:56:14;;;;;;;0.50;0.50;;;18.60;99.90;;;;;;5065737;28;20052;-86
2021/11/18 10:58:44;;;;;;;0.60;0.60;;;18.60;99.90;;;;;;5070363;28;20044;-86
2021/11/18 11:01:12;;;;;;;;;;;18.60;99.90;;;;;;5070876;28;20036;-88
2021/11/18 11:03:42;;;;;;;1.05;0.52;;;18.60;99.90;;;;;;5102247;27;19920;-86
2021/11/18 11:06:13;;;;;;;1.08;0.80;;;18.60;99.90;;;;;;5074797;28;20047;-83
2021/11/18 11:08:48;;;;;;;0.90;0.50;;;18.60;99.90;;;;;;5073511;28;20114;-86
2021/11/18 11:11:32;;;;;;;0.73;0.55;;;18.60;99.90;;;;;;5061390;28;20488;-84
2021/11/18 11:14:30;;;;;;;0.50;0.50;;;18.60;99.90;;;;;;5073354;28;20619;-84
2021/11/18 11:17:24;;;;;;;4.32;0.80;;;18.60;99.90;;;;;;5065612;28;20798;-87
2021/11/18 11:20:10;;;;;;;0.63;0.60;;;18.60;99.90;;;;;;5063462;28;20047;-84
2021/11/18 11:22:57;;;;;;;2.05;0.70;;;18.60;99.90;;;;;;5072546;28;20082;-85
2021/11/18 11:25:48;;;;;;;1.65;0.82;;;18.60;99.90;;;;;;5093859;28;20559;-86
2021/11/18 11:28:32;;;;;;;1.98;0.80;;;18.60;99.90;;;;;;5072181;28;20086;-87
2021/11/18 11:31:16;;;;;;;4.82;0.70;;;18.60;99.90;;;;;;5056227;28;20514;-87
2021/11/18 11:34:04;;;;;;;0.65;0.65;;;18.60;99.90;;;;;;5050521;28;20067;-87
2021/11/18 11:36:56;;;;;;;0.75;0.65;;;18.60;99.90;;;;;;5069747;28;20550;-86
2021/11/18 11:39:31;;;;;;;0.93;0.75;;;18.60;99.90;;;;;;5065374;28;20094;-86
2021/11/18 11:42:15;;;;;;;1.77;0.85;;;18.60;99.90;;;;;;5070757;28;20044;-86
2021/11/18 11:44:56;;;;;;;1.83;0.68;;;18.60;99.90;;;;;;5069918;28;20074;-87
2021/11/18 11:47:59;;;;;;;3.55;1.05;;;18.60;99.90;;;;;;5105088;28;20118;-86
2021/11/18 11:50:43;;;;;;;3.50;0.75;;;18.60;99.90;;;;;;5078991;28;20557;-86
2021/11/18 11:53:38;;;;;;;1.27;0.75;;;18.60;99.90;;;;;;5065879;28;20387;-86
2021/11/18 11:56:25;;;;;;;1.77;0.82;;;18.60;99.90;;;;;;5098778;28;20233;-87
2021/11/18 11:59:06;;;;;;;1.55;0.93;;;18.60;99.90;;;;;;5067719;28;20056;-86
2021/11/18 12:01:36;;;;;;;1.20;0.80;;;18.60;99.90;;;;;;5070318;28;20052;-85
2021/11/18 12:04:04;;;;;;;1.80;0.80;;;18.60;99.90;;;;;;5070363;28;20104;-86
2021/11/18 12:06:48;;;;;;;1.55;0.90;;;18.60;99.90;;;;;;5060632;28;20064;-84
2021/11/18 12:09:22;;;;;;;4.47;1.00;;;18.60;99.90;;;;;;5088198;28;20051;-86
2021/11/18 12:12:04;;;;;;;2.33;1.10;;;18.60;99.90;;;;;;5088524;28;20679;-87
2021/11/18 12:14:42;;;;;;;4.72;1.30;;;18.60;99.90;;;;;;5057265;28;20102;-87
2021/11/18 12:17:23;;;;;;;1.17;0.65;;;18.70;99.90;;;;;;5068637;28;20036;-86
2021/11/18 12:19:56;;;;;;;1.60;1.10;;;18.60;99.90;;;;;;5068469;28;20052;-88
2021/11/18 12:22:29;;;;;;;4.28;1.30;;;18.70;99.90;;;;;;5052897;28;20043;-87
2021/11/18 12:25:15;;;;;;;4.68;1.58;;;18.70;99.90;;;;;;5067168;28;20086;-87
2021/11/18 12:28:08;;;;;;;5.50;1.42;;;18.70;99.90;;;;;;5053142;28;20079;-86
2021/11/18 12:30:56;;;;;;;4.82;1.10;;;18.70;99.90;;;;;;5068713;28;20480;-88
2021/11/18 12:33:23;;;;;;;7.35;1.50;;;18.70;99.90;;;;;;5063552;28;20069;-87
2021/11/18 12:36:26;;;;;;;4.28;1.40;;;18.70;99.90;;;;;;5077019;28;20376;-87
2021/11/18 12:38:55;;;;;;;2.72;1.10;;;18.70;99.90;;;;;;5048833;28;20127;-86
2021/11/18 12:41:38;;;;;;;5.03;1.27;;;18.70;99.90;;;;;;5051374;28;20044;-88
2021/11/18 12:44:26;;;;;;;3.03;1.35;;;18.70;99.90;;;;;;5063551;28;20063;-87
2021/11/18 12:46:57;;;;;;;6.20;1.48;;;18.70;99.90;;;;;;5069301;28;20082;-87
2021/11/18 12:49:47;;;;;;;5.70;1.83;;;18.70;99.90;;;;;;5108658;28;20047;-93
2021/11/18 12:52:31;;;;;;;6.57;1.92;;;18.70;99.90;;;;;;5047558;28;20028;-93
2021/11/18 12:55:15;;;;;;;6.30;1.27;;;18.70;99.90;;;;;;5062202;28;20048;-96
2021/11/18 12:57:52;;;;;;;6.15;1.75;;;18.70;99.90;;;;;;5066002;28;20511;-94
2021/11/18 13:00:19;;;;;;;2.83;1.20;;;18.70;99.90;;;;;;5072404;28;20044;-93
2021/11/18 13:02:58;;;;;;;4.30;1.48;;;18.80;99.90;;;;;;5076316;28;20066;-92
2021/11/18 13:05:31;;;;;;;2.33;1.30;;;18.80;99.90;;;;;;5365277;23;20058;31